sensor_id;sensor_type;location;lat;lon;timestamp;P1;durP1;ratioP1;P2;durP2;ratioP2
57856;SDS011;43683;48.650;9.290;2023-02-13T00:01:15;23.88;;;13.55;;
57856;SDS011;43683;48.650;9.290;2023-02-13T00:03:41;23.20;;;12.45;;
57856;SDS011;43683;48.650;9.290;2023-02-13T00:06:07;22.45;;;12.43;;
57856;SDS011;43683;48.650;9.290;2023-02-13T00:08:32;26.05;;;13.35;;
57856;SDS011;43683;48.650;9.290;2023-02-13T00:10:58;29.55;;;14.30;;
57856;SDS011;43683;48.650;9.290;2023-02-13T00:13:23;25.80;;;13.27;;
57856;SDS011;43683;48.650;9.290;2023-02-13T00:15:55;24.83;;;12.25;;
57856;SDS011;43683;48.650;9.290;2023-02-13T00:18:22;25.60;;;12.57;;
57856;SDS011;43683;48.650;9.290;2023-02-13T00:21:01;30.98;;;14.82;;
57856;SDS011;43683;48.650;9.290;2023-02-13T00:23:29;24.17;;;13.40;;
57856;SDS011;43683;48.650;9.290;2023-02-13T00:25:56;25.25;;;13.73;;
57856;SDS011;43683;48.650;9.290;2023-02-13T00:28:23;31.08;;;14.15;;
57856;SDS011;43683;48.650;9.290;2023-02-13T00:30:49;32.97;;;15.23;;
57856;SDS011;43683;48.650;9.290;2023-02-13T00:33:14;27.02;;;13.25;;
57856;SDS011;43683;48.650;9.290;2023-02-13T00:35:40;25.80;;;13.55;;
57856;SDS011;43683;48.650;9.290;2023-02-13T00:38:05;24.23;;;13.23;;
57856;SDS011;43683;48.650;9.290;2023-02-13T00:40:31;29.00;;;15.32;;
57856;SDS011;43683;48.650;9.290;2023-02-13T00:42:56;26.50;;;14.20;;
57856;SDS011;43683;48.650;9.290;2023-02-13T00:45:22;31.55;;;15.27;;
57856;SDS011;43683;48.650;9.290;2023-02-13T00:47:47;23.70;;;13.68;;
57856;SDS011;43683;48.650;9.290;2023-02-13T00:50:13;37.47;;;15.88;;
57856;SDS011;43683;48.650;9.290;2023-02-13T00:52:39;30.65;;;15.95;;
57856;SDS011;43683;48.650;9.290;2023-02-13T00:55:04;32.28;;;16.08;;
57856;SDS011;43683;48.650;9.290;2023-02-13T00:57:30;25.48;;;14.55;;
57856;SDS011;43683;48.650;9.290;2023-02-13T00:59:56;30.58;;;15.10;;
57856;SDS011;43683;48.650;9.290;2023-02-13T01:02:22;28.23;;;14.95;;
57856;SDS011;43683;48.650;9.290;2023-02-13T01:04:48;28.55;;;15.32;;
57856;SDS011;43683;48.650;9.290;2023-02-13T01:07:13;27.25;;;13.70;;
57856;SDS011;43683;48.650;9.290;2023-02-13T01:09:39;28.58;;;13.90;;
57856;SDS011;43683;48.650;9.290;2023-02-13T01:12:05;31.13;;;15.82;;
57856;SDS011;43683;48.650;9.290;2023-02-13T01:14:30;23.40;;;13.43;;
57856;SDS011;43683;48.650;9.290;2023-02-13T01:16:56;25.52;;;12.57;;
57856;SDS011;43683;48.650;9.290;2023-02-13T01:19:21;22.50;;;13.02;;
57856;SDS011;43683;48.650;9.290;2023-02-13T01:21:47;24.40;;;12.57;;
57856;SDS011;43683;48.650;9.290;2023-02-13T01:24:12;24.15;;;11.68;;
57856;SDS011;43683;48.650;9.290;2023-02-13T01:26:38;19.13;;;10.88;;
57856;SDS011;43683;48.650;9.290;2023-02-13T01:29:03;22.70;;;11.93;;
57856;SDS011;43683;48.650;9.290;2023-02-13T01:31:29;23.55;;;13.23;;
57856;SDS011;43683;48.650;9.290;2023-02-13T01:33:55;28.17;;;13.25;;
57856;SDS011;43683;48.650;9.290;2023-02-13T01:36:22;21.58;;;11.93;;
57856;SDS011;43683;48.650;9.290;2023-02-13T01:38:51;21.65;;;11.93;;
57856;SDS011;43683;48.650;9.290;2023-02-13T01:41:17;23.92;;;10.65;;
57856;SDS011;43683;48.650;9.290;2023-02-13T01:46:11;20.98;;;10.85;;
57856;SDS011;43683;48.650;9.290;2023-02-13T01:48:40;22.45;;;11.50;;
57856;SDS011;43683;48.650;9.290;2023-02-13T01:51:07;21.95;;;10.82;;
57856;SDS011;43683;48.650;9.290;2023-02-13T01:53:41;22.77;;;11.57;;
57856;SDS011;43683;48.650;9.290;2023-02-13T01:56:21;22.70;;;10.38;;
57856;SDS011;43683;48.650;9.290;2023-02-13T01:58:52;24.85;;;11.43;;
57856;SDS011;43683;48.650;9.290;2023-02-13T02:01:21;22.85;;;10.25;;
57856;SDS011;43683;48.650;9.290;2023-02-13T02:06:27;18.88;;;9.77;;
57856;SDS011;43683;48.650;9.290;2023-02-13T02:08:58;19.70;;;10.38;;
57856;SDS011;43683;48.650;9.290;2023-02-13T02:11:37;17.83;;;9.90;;
57856;SDS011;43683;48.650;9.290;2023-02-13T02:14:08;19.02;;;10.10;;
57856;SDS011;43683;48.650;9.290;2023-02-13T02:16:33;21.80;;;10.52;;
57856;SDS011;43683;48.650;9.290;2023-02-13T02:19:03;18.58;;;9.35;;
57856;SDS011;43683;48.650;9.290;2023-02-13T02:21:49;19.15;;;10.07;;
57856;SDS011;43683;48.650;9.290;2023-02-13T02:24:45;23.15;;;10.82;;
57856;SDS011;43683;48.650;9.290;2023-02-13T02:27:52;19.55;;;11.00;;
57856;SDS011;43683;48.650;9.290;2023-02-13T02:30:45;18.77;;;10.20;;
57856;SDS011;43683;48.650;9.290;2023-02-13T02:36:10;20.17;;;10.73;;
57856;SDS011;43683;48.650;9.290;2023-02-13T02:41:48;19.20;;;9.48;;
57856;SDS011;43683;48.650;9.290;2023-02-13T02:44:30;16.55;;;9.02;;
57856;SDS011;43683;48.650;9.290;2023-02-13T02:50:09;17.25;;;9.85;;
57856;SDS011;43683;48.650;9.290;2023-02-13T02:52:54;23.35;;;11.43;;
57856;SDS011;43683;48.650;9.290;2023-02-13T02:55:34;21.73;;;10.88;;
57856;SDS011;43683;48.650;9.290;2023-02-13T02:58:13;18.65;;;10.00;;
57856;SDS011;43683;48.650;9.290;2023-02-13T03:01:06;22.15;;;10.48;;
57856;SDS011;43683;48.650;9.290;2023-02-13T03:03:53;22.40;;;11.18;;
57856;SDS011;43683;48.650;9.290;2023-02-13T03:06:46;18.23;;;10.57;;
57856;SDS011;43683;48.650;9.290;2023-02-13T03:09:30;18.80;;;10.05;;
57856;SDS011;43683;48.650;9.290;2023-02-13T03:12:20;17.92;;;10.10;;
57856;SDS011;43683;48.650;9.290;2023-02-13T03:15:07;16.63;;;9.85;;
57856;SDS011;43683;48.650;9.290;2023-02-13T03:17:33;17.85;;;8.68;;
57856;SDS011;43683;48.650;9.290;2023-02-13T03:31:22;15.98;;;8.75;;
57856;SDS011;43683;48.650;9.290;2023-02-13T03:36:27;16.17;;;9.27;;
57856;SDS011;43683;48.650;9.290;2023-02-13T03:39:23;16.63;;;9.68;;
57856;SDS011;43683;48.650;9.290;2023-02-13T03:41:57;18.83;;;9.63;;
57856;SDS011;43683;48.650;9.290;2023-02-13T03:44:43;16.27;;;8.93;;
57856;SDS011;43683;48.650;9.290;2023-02-13T03:47:38;15.52;;;9.02;;
57856;SDS011;43683;48.650;9.290;2023-02-13T03:50:05;14.20;;;8.45;;
57856;SDS011;43683;48.650;9.290;2023-02-13T03:55:08;20.50;;;9.85;;
57856;SDS011;43683;48.650;9.290;2023-02-13T03:57:59;15.93;;;9.27;;
57856;SDS011;43683;48.650;9.290;2023-02-13T04:00:49;20.42;;;10.68;;
57856;SDS011;43683;48.650;9.290;2023-02-13T04:03:23;19.45;;;11.07;;
57856;SDS011;43683;48.650;9.290;2023-02-13T04:06:06;19.70;;;11.27;;
57856;SDS011;43683;48.650;9.290;2023-02-13T04:08:36;18.40;;;11.13;;
57856;SDS011;43683;48.650;9.290;2023-02-13T04:13:34;20.88;;;12.30;;
57856;SDS011;43683;48.650;9.290;2023-02-13T04:18:47;23.13;;;11.27;;
57856;SDS011;43683;48.650;9.290;2023-02-13T04:21:16;26.58;;;12.63;;
57856;SDS011;43683;48.650;9.290;2023-02-13T04:23:41;24.08;;;11.95;;
57856;SDS011;43683;48.650;9.290;2023-02-13T04:26:08;24.88;;;11.70;;
57856;SDS011;43683;48.650;9.290;2023-02-13T04:28:40;24.45;;;12.07;;
57856;SDS011;43683;48.650;9.290;2023-02-13T04:31:06;23.08;;;11.85;;
57856;SDS011;43683;48.650;9.290;2023-02-13T04:33:31;26.27;;;12.00;;
57856;SDS011;43683;48.650;9.290;2023-02-13T04:35:57;28.33;;;12.55;;
57856;SDS011;43683;48.650;9.290;2023-02-13T04:38:22;27.13;;;12.90;;
57856;SDS011;43683;48.650;9.290;2023-02-13T04:40:48;28.90;;;14.65;;
57856;SDS011;43683;48.650;9.290;2023-02-13T04:43:13;26.83;;;14.07;;
57856;SDS011;43683;48.650;9.290;2023-02-13T04:45:39;28.48;;;16.10;;
57856;SDS011;43683;48.650;9.290;2023-02-13T04:48:04;30.77;;;17.55;;
57856;SDS011;43683;48.650;9.290;2023-02-13T04:50:30;30.90;;;17.05;;
57856;SDS011;43683;48.650;9.290;2023-02-13T04:52:56;27.52;;;15.43;;
57856;SDS011;43683;48.650;9.290;2023-02-13T04:55:25;29.70;;;15.30;;
57856;SDS011;43683;48.650;9.290;2023-02-13T04:57:52;33.70;;;15.18;;
57856;SDS011;43683;48.650;9.290;2023-02-13T05:00:22;28.40;;;15.32;;
57856;SDS011;43683;48.650;9.290;2023-02-13T05:02:49;28.65;;;14.88;;
57856;SDS011;43683;48.650;9.290;2023-02-13T05:05:14;27.10;;;13.57;;
57856;SDS011;43683;48.650;9.290;2023-02-13T05:07:40;27.67;;;13.60;;
57856;SDS011;43683;48.650;9.290;2023-02-13T05:10:07;25.83;;;13.68;;
57856;SDS011;43683;48.650;9.290;2023-02-13T05:12:33;28.70;;;13.93;;
57856;SDS011;43683;48.650;9.290;2023-02-13T05:14:59;26.17;;;12.63;;
57856;SDS011;43683;48.650;9.290;2023-02-13T05:17:24;27.88;;;13.65;;
57856;SDS011;43683;48.650;9.290;2023-02-13T05:19:50;23.67;;;12.50;;
57856;SDS011;43683;48.650;9.290;2023-02-13T05:22:15;27.80;;;13.07;;
57856;SDS011;43683;48.650;9.290;2023-02-13T05:24:59;25.55;;;12.73;;
57856;SDS011;43683;48.650;9.290;2023-02-13T05:27:25;21.40;;;12.05;;
57856;SDS011;43683;48.650;9.290;2023-02-13T05:29:50;26.83;;;14.65;;
57856;SDS011;43683;48.650;9.290;2023-02-13T05:32:16;27.13;;;14.52;;
57856;SDS011;43683;48.650;9.290;2023-02-13T05:34:41;25.15;;;12.18;;
57856;SDS011;43683;48.650;9.290;2023-02-13T05:37:07;24.55;;;13.27;;
57856;SDS011;43683;48.650;9.290;2023-02-13T05:39:32;22.20;;;11.93;;
57856;SDS011;43683;48.650;9.290;2023-02-13T05:41:58;24.52;;;12.57;;
57856;SDS011;43683;48.650;9.290;2023-02-13T05:44:23;23.55;;;11.82;;
57856;SDS011;43683;48.650;9.290;2023-02-13T05:46:49;20.65;;;10.75;;
57856;SDS011;43683;48.650;9.290;2023-02-13T05:51:42;21.80;;;11.63;;
57856;SDS011;43683;48.650;9.290;2023-02-13T05:54:08;24.25;;;12.07;;
57856;SDS011;43683;48.650;9.290;2023-02-13T05:56:33;22.70;;;11.80;;
57856;SDS011;43683;48.650;9.290;2023-02-13T05:58:59;27.45;;;13.15;;
57856;SDS011;43683;48.650;9.290;2023-02-13T06:01:24;20.17;;;11.35;;
57856;SDS011;43683;48.650;9.290;2023-02-13T06:03:50;24.95;;;12.93;;
57856;SDS011;43683;48.650;9.290;2023-02-13T06:06:16;21.13;;;11.30;;
57856;SDS011;43683;48.650;9.290;2023-02-13T06:08:42;22.92;;;12.18;;
57856;SDS011;43683;48.650;9.290;2023-02-13T06:11:08;26.35;;;12.75;;
57856;SDS011;43683;48.650;9.290;2023-02-13T06:13:35;20.10;;;11.23;;
57856;SDS011;43683;48.650;9.290;2023-02-13T06:16:04;27.63;;;13.25;;
57856;SDS011;43683;48.650;9.290;2023-02-13T06:18:33;26.52;;;14.23;;
57856;SDS011;43683;48.650;9.290;2023-02-13T06:20:59;22.27;;;11.85;;
57856;SDS011;43683;48.650;9.290;2023-02-13T06:23:25;25.95;;;13.02;;
57856;SDS011;43683;48.650;9.290;2023-02-13T06:25:51;21.67;;;12.65;;
57856;SDS011;43683;48.650;9.290;2023-02-13T06:28:17;21.90;;;11.98;;
57856;SDS011;43683;48.650;9.290;2023-02-13T06:30:42;18.83;;;12.10;;
57856;SDS011;43683;48.650;9.290;2023-02-13T06:33:08;20.77;;;11.45;;
57856;SDS011;43683;48.650;9.290;2023-02-13T06:35:33;20.27;;;11.70;;
57856;SDS011;43683;48.650;9.290;2023-02-13T06:37:59;21.45;;;12.45;;
57856;SDS011;43683;48.650;9.290;2023-02-13T06:40:24;24.08;;;12.13;;
57856;SDS011;43683;48.650;9.290;2023-02-13T06:42:50;19.90;;;10.65;;
57856;SDS011;43683;48.650;9.290;2023-02-13T06:45:16;18.67;;;11.82;;
57856;SDS011;43683;48.650;9.290;2023-02-13T06:47:42;22.38;;;11.45;;
57856;SDS011;43683;48.650;9.290;2023-02-13T06:50:08;24.23;;;12.25;;
57856;SDS011;43683;48.650;9.290;2023-02-13T06:52:35;21.98;;;12.27;;
57856;SDS011;43683;48.650;9.290;2023-02-13T06:55:01;28.30;;;13.20;;
57856;SDS011;43683;48.650;9.290;2023-02-13T06:57:27;25.15;;;12.55;;
57856;SDS011;43683;48.650;9.290;2023-02-13T06:59:56;23.70;;;13.18;;
57856;SDS011;43683;48.650;9.290;2023-02-13T07:02:23;27.45;;;12.40;;
57856;SDS011;43683;48.650;9.290;2023-02-13T07:04:48;26.75;;;13.13;;
57856;SDS011;43683;48.650;9.290;2023-02-13T07:07:14;25.10;;;12.70;;
57856;SDS011;43683;48.650;9.290;2023-02-13T07:09:39;30.58;;;15.43;;
57856;SDS011;43683;48.650;9.290;2023-02-13T07:12:05;25.30;;;14.40;;
57856;SDS011;43683;48.650;9.290;2023-02-13T07:14:31;26.38;;;13.07;;
57856;SDS011;43683;48.650;9.290;2023-02-13T07:16:57;26.50;;;14.13;;
57856;SDS011;43683;48.650;9.290;2023-02-13T07:19:22;27.88;;;13.95;;
57856;SDS011;43683;48.650;9.290;2023-02-13T07:21:48;29.63;;;12.75;;
57856;SDS011;43683;48.650;9.290;2023-02-13T07:24:14;25.55;;;12.57;;
57856;SDS011;43683;48.650;9.290;2023-02-13T07:26:39;33.03;;;15.02;;
57856;SDS011;43683;48.650;9.290;2023-02-13T07:29:05;28.25;;;13.55;;
57856;SDS011;43683;48.650;9.290;2023-02-13T07:31:34;27.30;;;14.52;;
57856;SDS011;43683;48.650;9.290;2023-02-13T07:34:00;23.88;;;12.90;;
57856;SDS011;43683;48.650;9.290;2023-02-13T07:36:26;24.48;;;13.25;;
57856;SDS011;43683;48.650;9.290;2023-02-13T07:38:52;28.27;;;13.60;;
57856;SDS011;43683;48.650;9.290;2023-02-13T07:41:18;25.85;;;14.30;;
57856;SDS011;43683;48.650;9.290;2023-02-13T07:43:44;30.10;;;14.77;;
57856;SDS011;43683;48.650;9.290;2023-02-13T07:46:09;26.83;;;13.30;;
57856;SDS011;43683;48.650;9.290;2023-02-13T07:48:35;24.95;;;13.30;;
57856;SDS011;43683;48.650;9.290;2023-02-13T07:51:01;26.30;;;12.55;;
57856;SDS011;43683;48.650;9.290;2023-02-13T07:53:28;25.83;;;13.35;;
57856;SDS011;43683;48.650;9.290;2023-02-13T07:55:54;23.02;;;12.20;;
57856;SDS011;43683;48.650;9.290;2023-02-13T07:58:19;21.38;;;12.32;;
57856;SDS011;43683;48.650;9.290;2023-02-13T08:00:45;31.15;;;15.45;;
57856;SDS011;43683;48.650;9.290;2023-02-13T08:03:10;22.45;;;11.57;;
57856;SDS011;43683;48.650;9.290;2023-02-13T08:05:36;25.23;;;12.73;;
57856;SDS011;43683;48.650;9.290;2023-02-13T08:08:02;26.23;;;13.75;;
57856;SDS011;43683;48.650;9.290;2023-02-13T08:10:28;22.05;;;13.40;;
57856;SDS011;43683;48.650;9.290;2023-02-13T08:13:12;21.70;;;11.45;;
57856;SDS011;43683;48.650;9.290;2023-02-13T08:15:40;25.35;;;12.88;;
57856;SDS011;43683;48.650;9.290;2023-02-13T08:18:08;24.17;;;12.40;;
57856;SDS011;43683;48.650;9.290;2023-02-13T08:20:34;26.52;;;14.52;;
57856;SDS011;43683;48.650;9.290;2023-02-13T08:23:03;24.58;;;13.25;;
57856;SDS011;43683;48.650;9.290;2023-02-13T08:25:30;23.60;;;12.75;;
57856;SDS011;43683;48.650;9.290;2023-02-13T08:27:55;32.03;;;15.82;;
57856;SDS011;43683;48.650;9.290;2023-02-13T08:30:21;17.85;;;11.35;;
57856;SDS011;43683;48.650;9.290;2023-02-13T08:32:47;17.30;;;10.40;;
57856;SDS011;43683;48.650;9.290;2023-02-13T08:35:12;18.42;;;11.55;;
57856;SDS011;43683;48.650;9.290;2023-02-13T08:37:38;19.90;;;11.13;;
57856;SDS011;43683;48.650;9.290;2023-02-13T08:40:03;17.90;;;10.40;;
57856;SDS011;43683;48.650;9.290;2023-02-13T08:42:29;17.08;;;9.45;;
57856;SDS011;43683;48.650;9.290;2023-02-13T08:44:55;18.15;;;9.48;;
57856;SDS011;43683;48.650;9.290;2023-02-13T08:47:20;19.17;;;10.45;;
57856;SDS011;43683;48.650;9.290;2023-02-13T08:49:46;15.68;;;8.80;;
57856;SDS011;43683;48.650;9.290;2023-02-13T08:52:11;13.52;;;8.07;;
57856;SDS011;43683;48.650;9.290;2023-02-13T08:54:37;15.52;;;8.93;;
57856;SDS011;43683;48.650;9.290;2023-02-13T08:57:02;15.07;;;7.88;;
57856;SDS011;43683;48.650;9.290;2023-02-13T08:59:28;13.40;;;7.13;;
57856;SDS011;43683;48.650;9.290;2023-02-13T09:01:54;14.35;;;8.52;;
57856;SDS011;43683;48.650;9.290;2023-02-13T09:04:20;15.55;;;8.55;;
57856;SDS011;43683;48.650;9.290;2023-02-13T09:06:46;10.90;;;7.50;;
57856;SDS011;43683;48.650;9.290;2023-02-13T09:09:11;13.73;;;7.65;;
57856;SDS011;43683;48.650;9.290;2023-02-13T09:11:37;11.52;;;7.22;;
57856;SDS011;43683;48.650;9.290;2023-02-13T09:14:02;11.98;;;7.13;;
57856;SDS011;43683;48.650;9.290;2023-02-13T09:16:28;11.93;;;6.95;;
57856;SDS011;43683;48.650;9.290;2023-02-13T09:18:53;11.23;;;6.22;;
57856;SDS011;43683;48.650;9.290;2023-02-13T09:21:20;12.55;;;6.55;;
57856;SDS011;43683;48.650;9.290;2023-02-13T09:23:47;12.00;;;7.30;;
57856;SDS011;43683;48.650;9.290;2023-02-13T09:26:14;10.82;;;6.60;;
57856;SDS011;43683;48.650;9.290;2023-02-13T09:28:41;11.93;;;7.68;;
57856;SDS011;43683;48.650;9.290;2023-02-13T09:31:14;13.02;;;6.75;;
57856;SDS011;43683;48.650;9.290;2023-02-13T09:33:42;12.38;;;6.68;;
57856;SDS011;43683;48.650;9.290;2023-02-13T09:36:10;10.43;;;6.55;;
57856;SDS011;43683;48.650;9.290;2023-02-13T09:38:43;11.02;;;6.90;;
57856;SDS011;43683;48.650;9.290;2023-02-13T09:41:14;11.63;;;6.57;;
57856;SDS011;43683;48.650;9.290;2023-02-13T09:46:16;13.38;;;7.65;;
57856;SDS011;43683;48.650;9.290;2023-02-13T09:48:55;12.60;;;7.35;;
57856;SDS011;43683;48.650;9.290;2023-02-13T09:51:23;12.68;;;8.05;;
57856;SDS011;43683;48.650;9.290;2023-02-13T09:53:55;14.13;;;7.47;;
57856;SDS011;43683;48.650;9.290;2023-02-13T09:56:34;11.60;;;7.10;;
57856;SDS011;43683;48.650;9.290;2023-02-13T09:59:35;10.75;;;6.22;;
57856;SDS011;43683;48.650;9.290;2023-02-13T10:02:23;12.73;;;7.25;;
57856;SDS011;43683;48.650;9.290;2023-02-13T10:16:37;11.98;;;6.78;;
57856;SDS011;43683;48.650;9.290;2023-02-13T10:21:46;10.40;;;6.50;;
57856;SDS011;43683;48.650;9.290;2023-02-13T10:27:24;11.82;;;6.88;;
57856;SDS011;43683;48.650;9.290;2023-02-13T10:30:04;9.38;;;5.55;;
57856;SDS011;43683;48.650;9.290;2023-02-13T10:32:44;10.45;;;6.07;;
57856;SDS011;43683;48.650;9.290;2023-02-13T10:35:19;10.00;;;6.15;;
57856;SDS011;43683;48.650;9.290;2023-02-13T10:37:55;10.50;;;6.30;;
57856;SDS011;43683;48.650;9.290;2023-02-13T10:40:23;9.32;;;6.28;;
57856;SDS011;43683;48.650;9.290;2023-02-13T10:43:09;10.35;;;6.20;;
57856;SDS011;43683;48.650;9.290;2023-02-13T10:50:57;10.50;;;5.70;;
57856;SDS011;43683;48.650;9.290;2023-02-13T10:53:58;9.88;;;5.93;;
57856;SDS011;43683;48.650;9.290;2023-02-13T10:56:51;10.25;;;6.22;;
57856;SDS011;43683;48.650;9.290;2023-02-13T10:59:31;8.75;;;5.93;;
57856;SDS011;43683;48.650;9.290;2023-02-13T11:02:21;10.65;;;6.35;;
57856;SDS011;43683;48.650;9.290;2023-02-13T11:04:48;9.07;;;4.90;;
57856;SDS011;43683;48.650;9.290;2023-02-13T11:07:17;9.48;;;5.45;;
57856;SDS011;43683;48.650;9.290;2023-02-13T11:09:46;9.38;;;5.28;;
57856;SDS011;43683;48.650;9.290;2023-02-13T11:12:27;13.20;;;5.88;;
57856;SDS011;43683;48.650;9.290;2023-02-13T11:14:55;7.97;;;5.43;;
57856;SDS011;43683;48.650;9.290;2023-02-13T11:17:23;11.57;;;6.15;;
57856;SDS011;43683;48.650;9.290;2023-02-13T11:22:29;8.95;;;5.57;;
57856;SDS011;43683;48.650;9.290;2023-02-13T11:25:01;11.57;;;5.97;;
57856;SDS011;43683;48.650;9.290;2023-02-13T11:27:32;8.75;;;5.57;;
57856;SDS011;43683;48.650;9.290;2023-02-13T11:32:55;12.77;;;7.28;;
57856;SDS011;43683;48.650;9.290;2023-02-13T11:35:30;8.98;;;6.00;;
57856;SDS011;43683;48.650;9.290;2023-02-13T11:40:45;10.30;;;6.18;;
57856;SDS011;43683;48.650;9.290;2023-02-13T11:43:28;11.75;;;7.57;;
57856;SDS011;43683;48.650;9.290;2023-02-13T11:46:07;12.43;;;6.45;;
57856;SDS011;43683;48.650;9.290;2023-02-13T11:48:59;9.25;;;6.35;;
57856;SDS011;43683;48.650;9.290;2023-02-13T11:56:50;11.20;;;7.85;;
57856;SDS011;43683;48.650;9.290;2023-02-13T11:59:17;12.40;;;7.07;;
57856;SDS011;43683;48.650;9.290;2023-02-13T12:01:47;12.57;;;7.13;;
57856;SDS011;43683;48.650;9.290;2023-02-13T12:04:36;13.48;;;7.60;;
57856;SDS011;43683;48.650;9.290;2023-02-13T12:09:34;11.35;;;6.82;;
57856;SDS011;43683;48.650;9.290;2023-02-13T12:12:03;10.80;;;6.40;;
57856;SDS011;43683;48.650;9.290;2023-02-13T12:14:30;11.15;;;6.53;;
57856;SDS011;43683;48.650;9.290;2023-02-13T12:19:40;12.75;;;7.13;;
57856;SDS011;43683;48.650;9.290;2023-02-13T12:27:44;12.43;;;6.88;;
57856;SDS011;43683;48.650;9.290;2023-02-13T12:39:36;9.85;;;6.30;;
57856;SDS011;43683;48.650;9.290;2023-02-13T12:44:51;11.55;;;6.57;;
57856;SDS011;43683;48.650;9.290;2023-02-13T12:47:30;11.07;;;6.82;;
57856;SDS011;43683;48.650;9.290;2023-02-13T12:53:41;12.07;;;6.60;;
57856;SDS011;43683;48.650;9.290;2023-02-13T13:01:05;23.92;;;7.85;;
57856;SDS011;43683;48.650;9.290;2023-02-13T13:04:21;10.48;;;6.65;;
57856;SDS011;43683;48.650;9.290;2023-02-13T13:07:11;13.05;;;7.68;;
57856;SDS011;43683;48.650;9.290;2023-02-13T13:12:39;10.27;;;6.47;;
57856;SDS011;43683;48.650;9.290;2023-02-13T13:18:15;12.30;;;7.30;;
57856;SDS011;43683;48.650;9.290;2023-02-13T13:23:45;10.88;;;6.53;;
57856;SDS011;43683;48.650;9.290;2023-02-13T13:29:11;10.80;;;6.97;;
57856;SDS011;43683;48.650;9.290;2023-02-13T13:31:41;14.63;;;7.28;;
57856;SDS011;43683;48.650;9.290;2023-02-13T13:34:12;12.82;;;6.93;;
57856;SDS011;43683;48.650;9.290;2023-02-13T13:36:50;13.63;;;7.25;;
57856;SDS011;43683;48.650;9.290;2023-02-13T13:39:32;10.80;;;6.53;;
57856;SDS011;43683;48.650;9.290;2023-02-13T13:44:51;11.15;;;6.68;;
57856;SDS011;43683;48.650;9.290;2023-02-13T13:47:31;11.93;;;6.10;;
57856;SDS011;43683;48.650;9.290;2023-02-13T13:50:16;11.65;;;6.18;;
57856;SDS011;43683;48.650;9.290;2023-02-13T13:53:03;10.50;;;6.05;;
57856;SDS011;43683;48.650;9.290;2023-02-13T13:58:21;11.13;;;5.55;;
57856;SDS011;43683;48.650;9.290;2023-02-13T14:01:13;12.30;;;6.20;;
57856;SDS011;43683;48.650;9.290;2023-02-13T14:03:39;10.70;;;5.30;;
57856;SDS011;43683;48.650;9.290;2023-02-13T14:06:08;10.13;;;5.50;;
57856;SDS011;43683;48.650;9.290;2023-02-13T14:11:04;9.18;;;6.00;;
57856;SDS011;43683;48.650;9.290;2023-02-13T14:13:36;11.32;;;5.80;;
57856;SDS011;43683;48.650;9.290;2023-02-13T14:16:04;12.70;;;6.20;;
57856;SDS011;43683;48.650;9.290;2023-02-13T14:18:33;11.85;;;6.22;;
57856;SDS011;43683;48.650;9.290;2023-02-13T14:21:00;9.98;;;5.70;;
57856;SDS011;43683;48.650;9.290;2023-02-13T14:23:34;10.32;;;5.63;;
57856;SDS011;43683;48.650;9.290;2023-02-13T14:33:54;11.73;;;5.72;;
57856;SDS011;43683;48.650;9.290;2023-02-13T14:36:25;8.27;;;5.57;;
57856;SDS011;43683;48.650;9.290;2023-02-13T14:39:00;9.38;;;5.45;;
57856;SDS011;43683;48.650;9.290;2023-02-13T14:44:23;9.77;;;5.47;;
57856;SDS011;43683;48.650;9.290;2023-02-13T14:46:56;10.82;;;5.43;;
57856;SDS011;43683;48.650;9.290;2023-02-13T14:49:32;11.48;;;5.75;;
57856;SDS011;43683;48.650;9.290;2023-02-13T14:52:02;10.98;;;5.75;;
57856;SDS011;43683;48.650;9.290;2023-02-13T14:54:44;10.65;;;5.85;;
57856;SDS011;43683;48.650;9.290;2023-02-13T14:57:35;11.13;;;6.00;;
57856;SDS011;43683;48.650;9.290;2023-02-13T15:02:48;11.32;;;5.45;;
57856;SDS011;43683;48.650;9.290;2023-02-13T15:05:18;9.23;;;5.05;;
57856;SDS011;43683;48.650;9.290;2023-02-13T15:08:18;10.65;;;5.20;;
57856;SDS011;43683;48.650;9.290;2023-02-13T15:10:41;10.77;;;6.38;;
57856;SDS011;43683;48.650;9.290;2023-02-13T15:13:14;10.52;;;6.22;;
57856;SDS011;43683;48.650;9.290;2023-02-13T15:15:52;11.23;;;6.65;;
57856;SDS011;43683;48.650;9.290;2023-02-13T15:18:26;11.63;;;6.15;;
57856;SDS011;43683;48.650;9.290;2023-02-13T15:20:54;12.60;;;6.93;;
57856;SDS011;43683;48.650;9.290;2023-02-13T15:23:24;10.45;;;5.78;;
57856;SDS011;43683;48.650;9.290;2023-02-13T15:25:56;11.82;;;6.70;;
57856;SDS011;43683;48.650;9.290;2023-02-13T15:28:24;11.70;;;6.57;;
57856;SDS011;43683;48.650;9.290;2023-02-13T15:30:58;10.50;;;6.15;;
57856;SDS011;43683;48.650;9.290;2023-02-13T15:36:03;11.90;;;6.80;;
57856;SDS011;43683;48.650;9.290;2023-02-13T15:38:31;10.88;;;6.10;;
57856;SDS011;43683;48.650;9.290;2023-02-13T15:41:02;12.05;;;6.55;;
57856;SDS011;43683;48.650;9.290;2023-02-13T15:43:35;12.30;;;6.78;;
57856;SDS011;43683;48.650;9.290;2023-02-13T15:46:05;11.30;;;6.22;;
57856;SDS011;43683;48.650;9.290;2023-02-13T15:48:42;12.95;;;6.03;;
57856;SDS011;43683;48.650;9.290;2023-02-13T15:51:08;10.57;;;5.88;;
57856;SDS011;43683;48.650;9.290;2023-02-13T15:53:34;12.65;;;6.57;;
57856;SDS011;43683;48.650;9.290;2023-02-13T15:56:01;13.35;;;6.80;;
57856;SDS011;43683;48.650;9.290;2023-02-13T15:58:30;13.02;;;6.50;;
57856;SDS011;43683;48.650;9.290;2023-02-13T16:01:04;12.20;;;6.18;;
57856;SDS011;43683;48.650;9.290;2023-02-13T16:03:32;10.82;;;6.07;;
57856;SDS011;43683;48.650;9.290;2023-02-13T16:05:59;14.15;;;7.18;;
57856;SDS011;43683;48.650;9.290;2023-02-13T16:08:30;10.43;;;6.25;;
57856;SDS011;43683;48.650;9.290;2023-02-13T16:16:25;14.30;;;7.13;;
57856;SDS011;43683;48.650;9.290;2023-02-13T16:18:52;14.23;;;7.32;;
57856;SDS011;43683;48.650;9.290;2023-02-13T16:21:22;12.80;;;7.05;;
57856;SDS011;43683;48.650;9.290;2023-02-13T16:23:50;11.93;;;7.40;;
57856;SDS011;43683;48.650;9.290;2023-02-13T16:26:20;14.98;;;7.70;;
57856;SDS011;43683;48.650;9.290;2023-02-13T16:28:46;13.52;;;7.47;;
57856;SDS011;43683;48.650;9.290;2023-02-13T16:31:15;13.93;;;7.60;;
57856;SDS011;43683;48.650;9.290;2023-02-13T16:33:42;14.05;;;7.50;;
57856;SDS011;43683;48.650;9.290;2023-02-13T16:43:47;13.82;;;7.68;;
57856;SDS011;43683;48.650;9.290;2023-02-13T16:53:57;14.95;;;7.93;;
57856;SDS011;43683;48.650;9.290;2023-02-13T16:56:28;15.00;;;7.95;;
57856;SDS011;43683;48.650;9.290;2023-02-13T17:02:12;16.27;;;8.73;;
57856;SDS011;43683;48.650;9.290;2023-02-13T17:04:38;14.38;;;7.70;;
57856;SDS011;43683;48.650;9.290;2023-02-13T17:07:12;16.23;;;7.45;;
57856;SDS011;43683;48.650;9.290;2023-02-13T17:09:39;15.43;;;7.95;;
57856;SDS011;43683;48.650;9.290;2023-02-13T17:12:10;17.23;;;8.68;;
57856;SDS011;43683;48.650;9.290;2023-02-13T17:14:38;14.45;;;7.15;;
57856;SDS011;43683;48.650;9.290;2023-02-13T17:17:08;16.35;;;7.75;;
57856;SDS011;43683;48.650;9.290;2023-02-13T17:19:35;17.30;;;8.43;;
57856;SDS011;43683;48.650;9.290;2023-02-13T17:22:01;17.60;;;7.88;;
57856;SDS011;43683;48.650;9.290;2023-02-13T17:24:27;16.90;;;7.95;;
57856;SDS011;43683;48.650;9.290;2023-02-13T17:26:53;14.65;;;8.70;;
57856;SDS011;43683;48.650;9.290;2023-02-13T17:29:19;14.95;;;8.75;;
57856;SDS011;43683;48.650;9.290;2023-02-13T17:31:44;15.38;;;8.68;;
57856;SDS011;43683;48.650;9.290;2023-02-13T17:34:10;17.02;;;8.82;;
57856;SDS011;43683;48.650;9.290;2023-02-13T17:36:36;13.88;;;7.80;;